Observation data for Haskell on 12/09/2018      Previous  Date       Current Mesonet Observations  Soil Data  Daily Summary Page  Observations in Plain Language
KHA1 090600Z 29008KT M02/M04 A3031 RMK A01 T10231043  RH  086%=      5-min Rain = 0
KHA1 090605Z 30008KT M02/M04 A3031 RMK A01 T10241044  RH  087%=      5-min Rain = 0
KHA1 090610Z 29008KT M03/M04 A3031 RMK A01 T10251044  RH  087%=      5-min Rain = 0
KHA1 090615Z 30008KT M03/M04 A3031 RMK A01 T10251044  RH  087%=      5-min Rain = 0
KHA1 090620Z 29008KT M03/M05 A3031 RMK A01 T10261045  RH  087%=      5-min Rain = 0
KHA1 090625Z 29008KT M03/M05 A3031 RMK A01 T10251045  RH  087%=      5-min Rain = 0
KHA1 090630Z 30008KT M03/M05 A3031 RMK A01 T10261046  RH  087%=      5-min Rain = 0
KHA1 090635Z 30008KT M03/M05 A3031 RMK A01 T10251046  RH  086%=      5-min Rain = 0
KHA1 090640Z 30008KT M03/M05 A3031 RMK A01 T10271047  RH  086%=      5-min Rain = 0
KHA1 090645Z 30008KT M03/M05 A3031 RMK A01 T10271047  RH  087%=      5-min Rain = 0
KHA1 090650Z 30008KT M03/M05 A3031 RMK A01 T10281047  RH  087%=      5-min Rain = 0
KHA1 090655Z 31008KT M03/M05 A3031 RMK A01 T10291048  RH  087%=      5-min Rain = 0
KHA1 090700Z 31008KT M03/M05 A3031 RMK A01 T10291048  RH  088%=      5-min Rain = 0
KHA1 090705Z 31008KT M03/M05 A3031 RMK A01 T10291048  RH  087%=      5-min Rain = 0
KHA1 090710Z 31008KT M03/M05 A3031 RMK A01 T10281049  RH  086%=      5-min Rain = 0
KHA1 090715Z 30007KT M03/M05 A303 RMK A01 T10301050  RH  086%=      5-min Rain = 0
KHA1 090720Z 30007KT M03/M05 A3031 RMK A01 T10311050  RH  087%=      5-min Rain = 0
KHA1 090725Z 30008KT M03/M05 A3031 RMK A01 T10301050  RH  086%=      5-min Rain = 0
KHA1 090730Z 30008KT M03/M05 A3031 RMK A01 T10291050  RH  085%=      5-min Rain = 0
KHA1 090735Z 30009KT M03/M05 A3031 RMK A01 T10281050  RH  085%=      5-min Rain = 0
KHA1 090740Z 30008KT M03/M05 A3031 RMK A01 T10281050  RH  085%=      5-min Rain = 0
KHA1 090745Z 30007KT M03/M05 A3031 RMK A01 T10301051  RH  086%=      5-min Rain = 0
KHA1 090750Z 31006KT M03/M05 A3031 RMK A01 T10301051  RH  086%=      5-min Rain = 0
KHA1 090755Z 30006KT M03/M05 A3031 RMK A01 T10311052  RH  086%=      5-min Rain = 0
KHA1 090800Z 31006KT M03/M05 A3031 RMK A01 T10311052  RH  085%=      5-min Rain = 0
KHA1 090805Z 31006KT M03/M05 A3031 RMK A01 T10311052  RH  085%=      5-min Rain = 0
KHA1 090810Z 32006KT M03/M05 A3031 RMK A01 T10311053  RH  085%=      5-min Rain = 0
KHA1 090815Z 31006KT M03/M05 A3031 RMK A01 T10321054  RH  085%=      5-min Rain = 0
KHA1 090820Z 31006KT M03/M05 A3032 RMK A01 T10331054  RH  086%=      5-min Rain = 0
KHA1 090825Z 31005KT M03/M06 A3032 RMK A01 T10341055  RH  086%=      5-min Rain = 0
KHA1 090830Z 31005KT M04/M06 A3032 RMK A01 T10351055  RH  086%=      5-min Rain = 0
KHA1 090835Z 32005KT M04/M06 A3032 RMK A01 T10351055  RH  086%=      5-min Rain = 0
KHA1 090840Z 33005KT M04/M06 A3032 RMK A01 T10351055  RH  086%=      5-min Rain = 0
KHA1 090845Z 33005KT M04/M06 A3032 RMK A01 T10371056  RH  086%=      5-min Rain = 0
KHA1 090850Z 33006KT M04/M06 A3032 RMK A01 T10381057  RH  087%=      5-min Rain = 0
KHA1 090855Z 33006KT M04/M06 A3031 RMK A01 T10391057  RH  087%=      5-min Rain = 0
KHA1 090900Z 33006KT M04/M06 A3031 RMK A01 T10401058  RH  088%=      5-min Rain = 0
KHA1 090905Z 33006KT M04/M06 A3031 RMK A01 T10401058  RH  088%=      5-min Rain = 0
KHA1 090910Z 34005KT M04/M06 A3031 RMK A01 T10411059  RH  087%=      5-min Rain = 0
KHA1 090915Z 34007KT M04/M06 A3031 RMK A01 T10421060  RH  088%=      5-min Rain = 0
KHA1 090920Z 34007KT M04/M06 A3031 RMK A01 T10421061  RH  087%=      5-min Rain = 0
KHA1 090925Z 34007KT M04/M06 A3031 RMK A01 T10421060  RH  087%=      5-min Rain = 0
KHA1 090930Z 34007KT M04/M06 A3031 RMK A01 T10421061  RH  087%=      5-min Rain = 0
KHA1 090935Z 34007KT M04/M06 A3031 RMK A01 T10421061  RH  087%=      5-min Rain = 0
KHA1 090940Z 34007KT M04/M06 A3031 RMK A01 T10431062  RH  087%=      5-min Rain = 0
KHA1 090945Z 33006KT M05/M06 A3031 RMK A01 T10451063  RH  088%=      5-min Rain = 0
KHA1 090950Z 33006KT M05/M06 A3031 RMK A01 T10461064  RH  088%=      5-min Rain = 0
KHA1 090955Z 33006KT M05/M06 A3031 RMK A01 T10471064  RH  088%=      5-min Rain = 0
KHA1 091000Z 34006KT M05/M07 A3031 RMK A01 T10481065  RH  088%=      5-min Rain = 0
KHA1 091005Z 34007KT M05/M06 A3031 RMK A01 T10471064  RH  088%=      5-min Rain = 0
KHA1 091010Z 33006KT M05/M06 A3031 RMK A01 T10461064  RH  088%=      5-min Rain = 0
KHA1 091015Z 33006KT M05/M07 A3031 RMK A01 T10481065  RH  088%=      5-min Rain = 0
KHA1 091020Z 33006KT M05/M07 A3031 RMK A01 T10491066  RH  088%=      5-min Rain = 0
KHA1 091025Z 33006KT M05/M07 A3031 RMK A01 T10511066  RH  089%=      5-min Rain = 0
KHA1 091030Z 33005KT M05/M07 A3031 RMK A01 T10511066  RH  089%=      5-min Rain = 0
KHA1 091035Z 33005KT M05/M07 A3031 RMK A01 T10511066  RH  089%=      5-min Rain = 0
KHA1 091040Z 33006KT M05/M06 A3031 RMK A01 T10501064  RH  090%=      5-min Rain = 0
KHA1 091045Z 32006KT M05/M06 A3031 RMK A01 T10471062  RH  090%=      5-min Rain = 0
KHA1 091050Z 32007KT M05/M06 A3032 RMK A01 T10451061  RH  089%=      5-min Rain = 0
KHA1 091055Z 32006KT M04/M06 A3032 RMK A01 T10441061  RH  088%=      5-min Rain = 0
KHA1 091100Z 32006KT M04/M06 A3032 RMK A01 T10441062  RH  088%=      5-min Rain = 0
KHA1 091105Z 31006KT M05/M06 A3032 RMK A01 T10451062  RH  088%=      5-min Rain = 0
KHA1 091110Z 30006KT M05/M06 A3032 RMK A01 T10471064  RH  088%=      5-min Rain = 0
KHA1 091115Z 31007KT M05/M07 A3032 RMK A01 T10491066  RH  088%=      5-min Rain = 0
KHA1 091120Z 31007KT M05/M07 A3033 RMK A01 T10491066  RH  088%=      5-min Rain = 0
KHA1 091125Z 31008KT M05/M07 A3033 RMK A01 T10481065  RH  088%=      5-min Rain = 0
KHA1 091130Z 31007KT M05/M07 A3033 RMK A01 T10481065  RH  088%=      5-min Rain = 0
KHA1 091135Z 31008KT M05/M07 A3033 RMK A01 T10471066  RH  087%=      5-min Rain = 0
KHA1 091140Z 31007KT M05/M07 A3034 RMK A01 T10461066  RH  086%=      5-min Rain = 0
KHA1 091145Z 31007KT M05/M07 A3034 RMK A01 T10461066  RH  086%=      5-min Rain = 0
KHA1 091150Z 31007KT M05/M07 A3034 RMK A01 T10461066  RH  086%=      5-min Rain = 0
KHA1 091155Z 31007KT M05/M07 A3034 RMK A01 T10451067  RH  085%=      5-min Rain = 0
KHA1 091200Z 31007KT M04/M07 A3034 RMK A01 T10441067  RH  084%=      5-min Rain = 0
KHA1 091205Z 31007KT M04/M07 A3034 RMK A01 T10441067  RH  084%=      5-min Rain = 0
KHA1 091210Z 31007KT M04/M07 A3034 RMK A01 T10441068  RH  084%=      5-min Rain = 0
KHA1 091215Z 31007KT M04/M07 A3034 RMK A01 T10431068  RH  083%=      5-min Rain = 0
KHA1 091220Z 32008KT M04/M07 A3034 RMK A01 T10411068  RH  081%=      5-min Rain = 0
KHA1 091225Z 32008KT M04/M07 A3034 RMK A01 T10401068  RH  081%=      5-min Rain = 0
KHA1 091230Z 32008KT M04/M07 A3035 RMK A01 T10411069  RH  081%=      5-min Rain = 0
KHA1 091235Z 32008KT M04/M07 A3035 RMK A01 T10411068  RH  081%=      5-min Rain = 0
KHA1 091240Z 32008KT M04/M07 A3035 RMK A01 T10411070  RH  081%=      5-min Rain = 0
KHA1 091245Z 32008KT M04/M07 A3035 RMK A01 T10421070  RH  081%=      5-min Rain = 0
KHA1 091250Z 31008KT M04/M07 A3035 RMK A01 T10441071  RH  081%=      5-min Rain = 0
KHA1 091255Z 31008KT M05/M07 A3035 RMK A01 T10451072  RH  082%=      5-min Rain = 0
KHA1 091300Z 31008KT M05/M07 A3035 RMK A01 T10461072  RH  082%=      5-min Rain = 0
KHA1 091305Z 31007KT M05/M07 A3035 RMK A01 T10481072  RH  083%=      5-min Rain = 0
KHA1 091310Z 31007KT M05/M07 A3036 RMK A01 T10481073  RH  083%=      5-min Rain = 0
KHA1 091315Z 31007KT M05/M07 A3036 RMK A01 T10491073  RH  083%=      5-min Rain = 0
KHA1 091320Z 32006KT M05/M07 A3036 RMK A01 T10481073  RH  083%=      5-min Rain = 0
KHA1 091325Z 32006KT M05/M07 A3036 RMK A01 T10481074  RH  082%=      5-min Rain = 0
KHA1 091330Z 33006KT M05/M07 A3036 RMK A01 T10481074  RH  082%=      5-min Rain = 0
KHA1 091335Z 33005KT M05/M07 A3037 RMK A01 T10481074  RH  082%=      5-min Rain = 0
KHA1 091340Z 33004KT M05/M08 A3037 RMK A01 T10491075  RH  082%=      5-min Rain = 0
KHA1 091345Z 33004KT M05/M08 A3037 RMK A01 T10511076  RH  082%=      5-min Rain = 0
KHA1 091350Z 33005KT M05/M08 A3037 RMK A01 T10521077  RH  082%=      5-min Rain = 0
KHA1 091355Z 32006KT M05/M08 A3037 RMK A01 T10521077  RH  083%=      5-min Rain = 0
KHA1 091400Z 32005KT M05/M08 A3038 RMK A01 T10531076  RH  084%=      5-min Rain = 0
KHA1 091405Z 32005KT M05/M08 A3038 RMK A01 T10521075  RH  083%=      5-min Rain = 0
KHA1 091410Z 32006KT M05/M08 A3038 RMK A01 T10501075  RH  082%=      5-min Rain = 0
KHA1 091415Z 31005KT M05/M08 A3038 RMK A01 T10491075  RH  082%=      5-min Rain = 0
KHA1 091420Z 32005KT M05/M07 A3038 RMK A01 T10471074  RH  081%=      5-min Rain = 0
KHA1 091425Z 31005KT M04/M07 A3038 RMK A01 T10441073  RH  080%=      5-min Rain = 0
KHA1 091430Z 31006KT M04/M07 A3038 RMK A01 T10401071  RH  079%=      5-min Rain = 0
KHA1 091435Z 32006KT M04/M07 A3038 RMK A01 T10371069  RH  079%=      5-min Rain = 0
KHA1 091440Z 32006KT M03/M07 A3038 RMK A01 T10341068  RH  077%=      5-min Rain = 0
KHA1 091445Z 32006KT M03/M07 A3038 RMK A01 T10311067  RH  077%=      5-min Rain = 0
KHA1 091450Z 31007KT M03/M07 A3039 RMK A01 T10301067  RH  076%=      5-min Rain = 0
KHA1 091455Z 31006KT M03/M07 A3039 RMK A01 T10291066  RH  075%=      5-min Rain = 0
KHA1 091500Z 31006KT M03/M06 A3039 RMK A01 T10281064  RH  076%=      5-min Rain = 0
KHA1 091505Z 32007KT M03/M06 A3039 RMK A01 T10271064  RH  076%=      5-min Rain = 0
KHA1 091510Z 32008KT M03/M06 A304 RMK A01 T10261063  RH  075%=      5-min Rain = 0
KHA1 091515Z 33008KT M03/M06 A304 RMK A01 T10251064  RH  075%=      5-min Rain = 0
KHA1 091520Z 33009KT M03/M06 A304 RMK A01 T10251063  RH  075%=      5-min Rain = 0
KHA1 091525Z 33008KT M03/M06 A304 RMK A01 T10251062  RH  076%=      5-min Rain = 0
KHA1 091530Z 32008KT M02/M06 A304 RMK A01 T10231060  RH  076%=      5-min Rain = 0
KHA1 091535Z 32009KT M02/M06 A304 RMK A01 T10211060  RH  075%=      5-min Rain = 0
KHA1 091540Z 33009KT M02/M06 A304 RMK A01 T10191060  RH  074%=      5-min Rain = 0
KHA1 091545Z 33008KT M02/M06 A3041 RMK A01 T10171057  RH  075%=      5-min Rain = 0
KHA1 091550Z 32009KT M02/M06 A3041 RMK A01 T10161056  RH  074%=      5-min Rain = 0
KHA1 091555Z 33009KT M02/M06 A3041 RMK A01 T10151055  RH  074%=      5-min Rain = 0
KHA1 091600Z 33010KT M01/M06 A3041 RMK A01 T10141056  RH  073%=      5-min Rain = 0
KHA1 091605Z 33009KT M01/M06 A3041 RMK A01 T10141055  RH  074%=      5-min Rain = 0
KHA1 091610Z 32009KT M01/M06 A3041 RMK A01 T10141056  RH  073%=      5-min Rain = 0
KHA1 091615Z 33009KT M01/M06 A3041 RMK A01 T10131055  RH  073%=      5-min Rain = 0
KHA1 091620Z 33009KT M01/M05 A3042 RMK A01 T10121053  RH  074%=      5-min Rain = 0
KHA1 091625Z 32009KT M01/M05 A3042 RMK A01 T10111054  RH  073%=      5-min Rain = 0
KHA1 091630Z 32008KT M01/M05 A3042 RMK A01 T10091048  RH  075%=      5-min Rain = 0
KHA1 091635Z 33009KT M01/M05 A3042 RMK A01 T10091050  RH  074%=      5-min Rain = 0
KHA1 091640Z 33010KT M01/M05 A3042 RMK A01 T10091050  RH  074%=      5-min Rain = 0
KHA1 091645Z 33009KT M01/M05 A3042 RMK A01 T10081047  RH  075%=      5-min Rain = 0
KHA1 091650Z 32009KT M01/M05 A3042 RMK A01 T10081047  RH  075%=      5-min Rain = 0
KHA1 091655Z 32009KT M01/M05 A3042 RMK A01 T10071045  RH  076%=      5-min Rain = 0
KHA1 091700Z 33010KT M01/M04 A3042 RMK A01 T10061043  RH  076%=      5-min Rain = 0
KHA1 091705Z 32010KT M01/M05 A3042 RMK A01 T10061045  RH  075%=      5-min Rain = 0
KHA1 091710Z 32009KT M00/M04 A3042 RMK A01 T10041041  RH  076%=      5-min Rain = 0
KHA1 091715Z 32009KT M00/M04 A3042 RMK A01 T10021038  RH  077%=      5-min Rain = 0
KHA1 091720Z 33009KT M00/M04 A3041 RMK A01 T10021040  RH  076%=      5-min Rain = 0
KHA1 091725Z 32009KT M00/M04 A3041 RMK A01 T10011039  RH  076%=      5-min Rain = 0.01
KHA1 091730Z 32008KT 00/04 A3041 RMK A01 T00-00-39  RH  076%=      5-min Rain = 0
KHA1 091735Z 33008KT 00/M04 A3041 RMK A01 T00021036  RH  076%=      5-min Rain = 0
KHA1 091740Z 33007KT 00/M03 A3041 RMK A01 T00041032  RH  077%=      5-min Rain = 0
KHA1 091745Z 32007KT 01/M03 A3041 RMK A01 T00051033  RH  076%=      5-min Rain = 0
KHA1 091750Z 32007KT 01/M03 A3041 RMK A01 T00071033  RH  075%=      5-min Rain = 0
KHA1 091755Z 33007KT 01/M03 A304 RMK A01 T00091030  RH  075%=      5-min Rain = 0
KHA1 091800Z 32006KT 01/M03 A304 RMK A01 T00111028  RH  076%=      5-min Rain = 0
KHA1 091805Z 31007KT 01/M03 A304 RMK A01 T00121027  RH  076%=      5-min Rain = 0
KHA1 091810Z 32007KT 01/M03 A304 RMK A01 T00141025  RH  076%=      5-min Rain = 0
KHA1 091815Z 32008KT 02/M03 A3039 RMK A01 T00151027  RH  074%=      5-min Rain = 0
KHA1 091820Z 32007KT 02/M03 A3039 RMK A01 T00161026  RH  074%=      5-min Rain = 0.02
KHA1 091825Z 32007KT 02/M03 A3039 RMK A01 T00171025  RH  074%=      5-min Rain = 0
KHA1 091830Z 31007KT 02/M03 A3039 RMK A01 T00181026  RH  073%=      5-min Rain = 0.01
KHA1 091835Z 32008KT 02/M03 A3038 RMK A01 T00181028  RH  072%=      5-min Rain = 0
KHA1 091840Z 32008KT 02/M03 A3038 RMK A01 T00191026  RH  072%=      5-min Rain = 0
KHA1 091845Z 32008KT 02/M02 A3038 RMK A01 T00211024  RH  073%=      5-min Rain = 0
KHA1 091850Z 33009KT 02/M03 A3038 RMK A01 T00211026  RH  072%=      5-min Rain = 0
KHA1 091855Z 33007KT 02/M03 A3038 RMK A01 T00221025  RH  072%=      5-min Rain = 0
KHA1 091900Z 32007KT 02/M02 A3037 RMK A01 T00231024  RH  072%=      5-min Rain = 0
KHA1 091905Z 33007KT 02/M02 A3037 RMK A01 T00241023  RH  072%=      5-min Rain = 0
KHA1 091910Z 32007KT 03/M03 A3037 RMK A01 T00251025  RH  070%=      5-min Rain = 0.01
KHA1 091915Z 32007KT 03/M02 A3037 RMK A01 T00261021  RH  071%=      5-min Rain = 0
KHA1 091920Z 31008KT 03/M02 A3037 RMK A01 T00271020  RH  072%=      5-min Rain = 0
KHA1 091925Z 31009KT 03/M02 A3037 RMK A01 T00261023  RH  071%=      5-min Rain = 0
KHA1 091930Z 31008KT 03/M02 A3037 RMK A01 T00271022  RH  071%=      5-min Rain = 0
KHA1 091935Z 31009KT 03/M02 A3036 RMK A01 T00281020  RH  071%=      5-min Rain = 0
KHA1 091940Z 31010KT 03/M02 A3036 RMK A01 T00291021  RH  070%=      5-min Rain = 0
KHA1 091945Z 31009KT 03/M02 A3036 RMK A01 T00301023  RH  069%=      5-min Rain = 0
KHA1 091950Z 32009KT 03/M02 A3036 RMK A01 T00311022  RH  069%=      5-min Rain = 0
KHA1 091955Z 32008KT 03/M01 A3036 RMK A01 T00341014  RH  072%=      5-min Rain = 0
KHA1 092000Z 32008KT 03/M02 A3036 RMK A01 T00341016  RH  071%=      5-min Rain = 0
KHA1 092005Z 33008KT 03/M01 A3036 RMK A01 T00341014  RH  072%=      5-min Rain = 0
KHA1 092010Z 32009KT 03/M02 A3035 RMK A01 T00331019  RH  069%=      5-min Rain = 0
KHA1 092015Z 32008KT 03/M02 A3035 RMK A01 T00331017  RH  070%=      5-min Rain = 0
KHA1 092020Z 32009KT 04/M02 A3035 RMK A01 T00351016  RH  070%=      5-min Rain = 0
KHA1 092025Z 33009KT 04/M02 A3035 RMK A01 T00351015  RH  070%=      5-min Rain = 0
KHA1 092030Z 32009KT 04/M01 A3035 RMK A01 T00371013  RH  071%=      5-min Rain = 0
KHA1 092035Z 32008KT 04/M01 A3035 RMK A01 T00381009  RH  072%=      5-min Rain = 0
KHA1 092040Z 31008KT 04/M01 A3035 RMK A01 T00381014  RH  070%=      5-min Rain = 0
KHA1 092045Z 33008KT 04/M02 A3035 RMK A01 T00381015  RH  069%=      5-min Rain = 0
KHA1 092050Z 32007KT 04/M01 A3035 RMK A01 T00411010  RH  070%=      5-min Rain = 0
KHA1 092055Z 31008KT 04/M01 A3035 RMK A01 T00421011  RH  069%=      5-min Rain = 0
KHA1 092100Z 31007KT 04/M02 A3035 RMK A01 T00431015  RH  067%=      5-min Rain = 0
KHA1 092105Z 30007KT 04/M01 A3035 RMK A01 T00431009  RH  070%=      5-min Rain = 0
KHA1 092110Z 31008KT 04/M01 A3035 RMK A01 T00441008  RH  070%=      5-min Rain = 0
KHA1 092115Z 30008KT 04/M01 A3035 RMK A01 T00431012  RH  068%=      5-min Rain = 0
KHA1 092120Z 30008KT 05/M01 A3035 RMK A01 T00451011  RH  068%=      5-min Rain = 0
KHA1 092125Z 30008KT 05/M01 A3035 RMK A01 T00451014  RH  066%=      5-min Rain = 0
KHA1 092130Z 30008KT 05/M01 A3035 RMK A01 T00461008  RH  069%=      5-min Rain = 0
KHA1 092135Z 30009KT 05/M01 A3035 RMK A01 T00471011  RH  067%=      5-min Rain = 0
KHA1 092140Z 31010KT 05/M01 A3035 RMK A01 T00461014  RH  066%=      5-min Rain = 0
KHA1 092145Z 31010KT 05/M01 A3035 RMK A01 T00451014  RH  066%=      5-min Rain = 0
KHA1 092150Z 31010KT 05/M02 A3035 RMK A01 T00451015  RH  065%=      5-min Rain = 0
KHA1 092155Z 31010KT 05/M02 A3035 RMK A01 T00451015  RH  065%=      5-min Rain = 0
KHA1 092200Z 30009KT 05/M02 A3035 RMK A01 T00451019  RH  063%=      5-min Rain = 0
KHA1 092205Z 31010KT 05/M02 A3035 RMK A01 T00461018  RH  064%=      5-min Rain = 0
KHA1 092210Z 31010KT 05/M02 A3035 RMK A01 T00451022  RH  062%=      5-min Rain = 0
KHA1 092215Z 30010KT 05/M02 A3035 RMK A01 T00451020  RH  064%=      5-min Rain = 0
KHA1 092220Z 31009KT 05/M02 A3035 RMK A01 T00451017  RH  065%=      5-min Rain = 0
KHA1 092225Z 31009KT 05/M02 A3035 RMK A01 T00451015  RH  066%=      5-min Rain = 0
KHA1 092230Z 31010KT 04/M02 A3035 RMK A01 T00441018  RH  065%=      5-min Rain = 0
KHA1 092235Z 31008KT 04/M02 A3036 RMK A01 T00441018  RH  064%=      5-min Rain = 0
KHA1 092240Z 31009KT 04/M03 A3036 RMK A01 T00441025  RH  061%=      5-min Rain = 0
KHA1 092245Z 30008KT 04/M02 A3036 RMK A01 T00431023  RH  063%=      5-min Rain = 0
KHA1 092250Z 30008KT 04/M03 A3036 RMK A01 T00431028  RH  061%=      5-min Rain = 0
KHA1 092255Z 30008KT 04/M03 A3036 RMK A01 T00411029  RH  061%=      5-min Rain = 0
KHA1 092300Z 30007KT 04/M03 A3036 RMK A01 T00411030  RH  060%=      5-min Rain = 0
KHA1 092305Z 30007KT 04/M03 A3036 RMK A01 T00401025  RH  063%=      5-min Rain = 0
KHA1 092310Z 30007KT 04/M02 A3036 RMK A01 T00381022  RH  065%=      5-min Rain = 0
KHA1 092315Z 30007KT 04/M02 A3036 RMK A01 T00371023  RH  066%=      5-min Rain = 0
KHA1 092320Z 30006KT 04/M02 A3036 RMK A01 T00351023  RH  066%=      5-min Rain = 0
KHA1 092325Z 29006KT 03/M02 A3036 RMK A01 T00331020  RH  069%=      5-min Rain = 0
KHA1 092330Z 29005KT 03/M02 A3036 RMK A01 T00301018  RH  072%=      5-min Rain = 0
KHA1 092335Z 28005KT 03/M02 A3036 RMK A01 T00271015  RH  074%=      5-min Rain = 0
KHA1 092340Z 28005KT 02/M01 A3036 RMK A01 T00241014  RH  077%=      5-min Rain = 0
KHA1 092345Z 28005KT 02/M02 A3036 RMK A01 T00231017  RH  076%=      5-min Rain = 0
KHA1 092350Z 28005KT 02/M02 A3035 RMK A01 T00221019  RH  075%=      5-min Rain = 0
KHA1 092355Z 29005KT 02/M02 A3035 RMK A01 T00211022  RH  074%=      5-min Rain = 0
KHA1 100000Z 29005KT 02/M03 A3035 RMK A01 T00201025  RH  073%=      5-min Rain = 0
KHA1 100005Z 29005KT 02/M02 A3036 RMK A01 T00181024  RH  074%=      5-min Rain = 0
KHA1 100010Z 28005KT 02/M02 A3036 RMK A01 T00151022  RH  077%=      5-min Rain = 0
KHA1 100015Z 29005KT 01/M02 A3036 RMK A01 T00141022  RH  078%=      5-min Rain = 0
KHA1 100020Z 29005KT 01/M02 A3036 RMK A01 T00141023  RH  077%=      5-min Rain = 0
KHA1 100025Z 29005KT 01/M02 A3036 RMK A01 T00131023  RH  078%=      5-min Rain = 0
KHA1 100030Z 29006KT 01/M02 A3036 RMK A01 T00121024  RH  078%=      5-min Rain = 0
KHA1 100035Z 29006KT 01/M03 A3036 RMK A01 T00121025  RH  077%=      5-min Rain = 0
KHA1 100040Z 29006KT 01/M03 A3035 RMK A01 T00131027  RH  075%=      5-min Rain = 0
KHA1 100045Z 29007KT 01/M03 A3036 RMK A01 T00131028  RH  075%=      5-min Rain = 0
KHA1 100050Z 29007KT 01/M03 A3036 RMK A01 T00131028  RH  074%=      5-min Rain = 0
KHA1 100055Z 29008KT 02/M03 A3036 RMK A01 T00151031  RH  072%=      5-min Rain = 0
KHA1 100100Z 29007KT 02/M03 A3036 RMK A01 T00151032  RH  071%=      5-min Rain = 0
KHA1 100105Z 29007KT 02/M03 A3036 RMK A01 T00161034  RH  070%=      5-min Rain = 0
KHA1 100110Z 29007KT 01/M03 A3036 RMK A01 T00141033  RH  072%=      5-min Rain = 0
KHA1 100115Z 29007KT 01/M03 A3036 RMK A01 T00131032  RH  072%=      5-min Rain = 0
KHA1 100120Z 29006KT 01/M03 A3036 RMK A01 T00111031  RH  074%=      5-min Rain = 0
KHA1 100125Z 29006KT 01/M03 A3036 RMK A01 T00081031  RH  076%=      5-min Rain = 0
KHA1 100130Z 30006KT 01/M03 A3036 RMK A01 T00071030  RH  077%=      5-min Rain = 0
KHA1 100135Z 30005KT 01/M03 A3037 RMK A01 T00061029  RH  078%=      5-min Rain = 0
KHA1 100140Z 30005KT 01/M03 A3036 RMK A01 T00061029  RH  078%=      5-min Rain = 0
KHA1 100145Z 30005KT 01/M03 A3037 RMK A01 T00051029  RH  078%=      5-min Rain = 0
KHA1 100150Z 29004KT 00/M03 A3037 RMK A01 T00041029  RH  079%=      5-min Rain = 0
KHA1 100155Z 30005KT 00/M03 A3037 RMK A01 T00041029  RH  079%=      5-min Rain = 0
KHA1 100200Z 30004KT 00/M03 A3037 RMK A01 T00031029  RH  080%=      5-min Rain = 0
KHA1 100205Z 30005KT 00/M03 A3038 RMK A01 T00021027  RH  082%=      5-min Rain = 0
KHA1 100210Z 30006KT 00/M03 A3038 RMK A01 T00021027  RH  082%=      5-min Rain = 0
KHA1 100215Z 31007KT 00/M03 A3038 RMK A01 T00031028  RH  080%=      5-min Rain = 0
KHA1 100220Z 30007KT 00/M03 A3038 RMK A01 T00041029  RH  079%=      5-min Rain = 0
KHA1 100225Z 30007KT 01/M03 A3038 RMK A01 T00061030  RH  077%=      5-min Rain = 0
KHA1 100230Z 30007KT 01/M03 A3038 RMK A01 T00061031  RH  077%=      5-min Rain = 0
KHA1 100235Z 30007KT 01/M03 A3038 RMK A01 T00061030  RH  077%=      5-min Rain = 0
KHA1 100240Z 29007KT 01/M03 A3038 RMK A01 T00061031  RH  077%=      5-min Rain = 0
KHA1 100245Z 30007KT 01/M03 A3038 RMK A01 T00061031  RH  077%=      5-min Rain = 0
KHA1 100250Z 30007KT 01/M03 A3038 RMK A01 T00051031  RH  077%=      5-min Rain = 0
KHA1 100255Z 29007KT 01/M03 A3038 RMK A01 T00061033  RH  075%=      5-min Rain = 0
KHA1 100300Z 29007KT 01/M04 A3038 RMK A01 T00081035  RH  074%=      5-min Rain = 0
KHA1 100305Z 28007KT 01/M04 A3038 RMK A01 T00091035  RH  073%=      5-min Rain = 0
KHA1 100310Z 29006KT 01/M03 A3038 RMK A01 T00081033  RH  074%=      5-min Rain = 0
KHA1 100315Z 29006KT 01/M03 A3038 RMK A01 T00071032  RH  075%=      5-min Rain = 0
KHA1 100320Z 29008KT 01/M04 A3038 RMK A01 T00101036  RH  072%=      5-min Rain = 0
KHA1 100325Z 28007KT 01/M04 A3038 RMK A01 T00111036  RH  071%=      5-min Rain = 0
KHA1 100330Z 28007KT 01/M03 A3038 RMK A01 T00091034  RH  073%=      5-min Rain = 0
KHA1 100335Z 28007KT 01/M04 A3038 RMK A01 T00081035  RH  074%=      5-min Rain = 0
KHA1 100340Z 28007KT 01/M04 A3038 RMK A01 T00081035  RH  074%=      5-min Rain = 0
KHA1 100345Z 28007KT 01/M03 A3038 RMK A01 T00091034  RH  073%=      5-min Rain = 0
KHA1 100350Z 27006KT 01/M03 A3038 RMK A01 T00071032  RH  076%=      5-min Rain = 0
KHA1 100355Z 27006KT 01/M03 A3038 RMK A01 T00061033  RH  076%=      5-min Rain = 0
KHA1 100400Z 27005KT 01/M03 A3037 RMK A01 T00051032  RH  076%=      5-min Rain = 0
KHA1 100405Z 26005KT 01/M03 A3037 RMK A01 T00061034  RH  075%=      5-min Rain = 0
KHA1 100410Z 26006KT 01/M04 A3038 RMK A01 T00091035  RH  073%=      5-min Rain = 0
KHA1 100415Z 26006KT 01/M03 A3038 RMK A01 T00081033  RH  074%=      5-min Rain = 0
KHA1 100420Z 26006KT 01/M03 A3038 RMK A01 T00081033  RH  075%=      5-min Rain = 0
KHA1 100425Z 26006KT 01/M03 A3038 RMK A01 T00071031  RH  076%=      5-min Rain = 0
KHA1 100430Z 26006KT 01/M03 A3038 RMK A01 T00081031  RH  076%=      5-min Rain = 0
KHA1 100435Z 25007KT 01/M03 A3038 RMK A01 T00081031  RH  076%=      5-min Rain = 0
KHA1 100440Z 26007KT 01/M03 A3038 RMK A01 T00071029  RH  077%=      5-min Rain = 0
KHA1 100445Z 26006KT 01/M03 A3038 RMK A01 T00051028  RH  079%=      5-min Rain = 0
KHA1 100450Z 27005KT 00/M03 A3038 RMK A01 T00031027  RH  081%=      5-min Rain = 0
KHA1 100455Z 27005KT 00/M03 A3038 RMK A01 T00031026  RH  082%=      5-min Rain = 0
KHA1 100500Z 28006KT 00/M03 A3038 RMK A01 T00031026  RH  081%=      5-min Rain = 0
KHA1 100505Z 28005KT 01/M03 A3038 RMK A01 T00051027  RH  080%=      5-min Rain = 0
KHA1 100510Z 27004KT 00/M03 A3038 RMK A01 T00031025  RH  082%=      5-min Rain = 0
KHA1 100515Z 26005KT 00/M03 A3038 RMK A01 T00031027  RH  081%=      5-min Rain = 0
KHA1 100520Z 26005KT 00/M03 A3037 RMK A01 T00041028  RH  080%=      5-min Rain = 0
KHA1 100525Z 26006KT 01/M03 A3037 RMK A01 T00051028  RH  079%=      5-min Rain = 0
KHA1 100530Z 25006KT 00/M03 A3036 RMK A01 T00041027  RH  080%=      5-min Rain = 0
KHA1 100535Z 26007KT 01/M03 A3036 RMK A01 T00061027  RH  079%=      5-min Rain = 0
KHA1 100540Z 26007KT 01/M03 A3036 RMK A01 T00061027  RH  079%=      5-min Rain = 0
KHA1 100545Z 26007KT 01/M03 A3036 RMK A01 T00051027  RH  080%=      5-min Rain = 0
KHA1 100550Z 26006KT 00/M03 A3036 RMK A01 T00021026  RH  082%=      5-min Rain = 0
KHA1 100555Z 27005KT 00/M03 A3037 RMK A01 T00021027  RH  081%=      5-min Rain = 0

Page generated in 0.0098 seconds.